createdAt,value
2017-08-19T00:00:09.390Z,87.10
2017-08-19T00:00:41.925Z,86.70
2017-08-19T00:01:15.023Z,86.90
2017-08-19T00:01:47.558Z,87.00
2017-08-19T00:02:20.072Z,86.80
2017-08-19T00:02:52.600Z,87.10
2017-08-19T00:03:25.873Z,88.00
2017-08-19T00:03:58.455Z,88.00
2017-08-19T00:04:30.997Z,88.00
2017-08-19T00:05:03.536Z,87.60
2017-08-19T00:05:36.778Z,87.30
2017-08-19T00:06:09.355Z,87.20
2017-08-19T00:06:41.910Z,86.90
2017-08-19T00:07:14.429Z,86.60
2017-08-19T00:07:46.976Z,87.00
2017-08-19T00:08:19.527Z,87.40
2017-08-19T00:08:52.057Z,87.60
2017-08-19T00:09:24.565Z,87.60
2017-08-19T00:09:57.875Z,86.50
2017-08-19T00:10:30.411Z,86.50
2017-08-19T00:11:02.927Z,87.20
2017-08-19T00:11:35.505Z,87.60
2017-08-19T00:12:08.068Z,88.10
2017-08-19T00:12:40.582Z,88.10
2017-08-19T00:13:13.147Z,87.90
2017-08-19T00:13:45.670Z,87.60
2017-08-19T00:14:18.207Z,87.10
2017-08-19T00:14:50.730Z,87.70
2017-08-19T00:15:24.052Z,88.00
2017-08-19T00:15:56.565Z,87.90
2017-08-19T00:16:29.087Z,87.90
2017-08-19T00:17:01.646Z,87.70
2017-08-19T00:17:34.174Z,87.10
2017-08-19T00:18:07.483Z,88.20
2017-08-19T00:18:40.026Z,88.20
2017-08-19T00:19:12.525Z,88.30
2017-08-19T00:19:45.844Z,88.00
2017-08-19T00:20:18.353Z,88.00
2017-08-19T00:20:50.875Z,87.90
2017-08-19T00:21:24.190Z,88.90
2017-08-19T00:21:56.716Z,88.10
2017-08-19T00:22:29.226Z,88.10
2017-08-19T00:23:02.533Z,87.10
2017-08-19T00:23:35.070Z,87.60
2017-08-19T00:24:07.584Z,87.20
2017-08-19T00:24:40.124Z,87.40
2017-08-19T00:25:12.666Z,87.50
2017-08-19T00:25:45.973Z,86.40
2017-08-19T00:26:18.508Z,86.40
2017-08-19T00:26:51.024Z,86.00
2017-08-19T00:27:24.303Z,86.50
2017-08-19T00:27:56.841Z,86.40
2017-08-19T00:28:29.626Z,87.30
2017-08-19T00:29:02.135Z,87.90
2017-08-19T00:29:34.673Z,87.70
2017-08-19T00:30:07.196Z,87.70
2017-08-19T00:30:39.729Z,87.50
2017-08-19T00:31:12.263Z,87.40
2017-08-19T00:31:44.804Z,88.00
2017-08-19T00:32:17.321Z,88.00
2017-08-19T00:32:49.845Z,87.60
2017-08-19T00:33:22.444Z,87.10
2017-08-19T00:33:54.985Z,86.70
2017-08-19T00:34:27.633Z,86.70
2017-08-19T00:35:00.169Z,87.30
2017-08-19T00:35:32.707Z,87.60
2017-08-19T00:36:05.212Z,88.00
2017-08-19T00:36:37.805Z,88.10
2017-08-19T00:37:10.339Z,87.90
2017-08-19T00:37:42.880Z,88.00
2017-08-19T00:38:15.407Z,88.10
2017-08-19T00:38:47.952Z,88.10
2017-08-19T00:39:20.536Z,87.80
2017-08-19T00:39:53.064Z,88.00
2017-08-19T00:40:25.611Z,88.20
2017-08-19T00:40:58.159Z,88.10
2017-08-19T00:41:30.674Z,88.00
2017-08-19T00:42:03.205Z,87.80
2017-08-19T00:42:36.499Z,88.30
2017-08-19T00:43:09.024Z,88.20
2017-08-19T00:43:41.563Z,88.30
2017-08-19T00:44:14.073Z,88.30
2017-08-19T00:44:46.597Z,88.10
2017-08-19T00:45:19.094Z,87.80
2017-08-19T00:45:51.610Z,86.90
2017-08-19T00:46:24.133Z,86.40
2017-08-19T00:46:56.647Z,86.10
2017-08-19T00:47:29.229Z,86.30
2017-08-19T00:48:01.758Z,86.40
2017-08-19T00:48:34.304Z,86.10
2017-08-19T00:49:06.810Z,85.80
2017-08-19T00:49:40.101Z,86.80
2017-08-19T00:50:12.660Z,86.70
2017-08-19T00:50:45.176Z,87.10
2017-08-19T00:51:17.687Z,87.30
2017-08-19T00:51:50.952Z,88.10
2017-08-19T00:52:24.233Z,88.10
2017-08-19T00:52:56.739Z,88.10
2017-08-19T00:53:29.254Z,87.80
2017-08-19T00:54:01.807Z,88.20
2017-08-19T00:54:34.340Z,88.20
2017-08-19T00:55:06.863Z,88.20
2017-08-19T00:55:39.404Z,88.20
2017-08-19T00:56:11.974Z,88.20
2017-08-19T00:56:44.481Z,88.30
2017-08-19T00:57:17.021Z,88.20
2017-08-19T00:57:49.557Z,88.20
2017-08-19T00:58:23.569Z,87.90
2017-08-19T00:58:56.090Z,87.90
2017-08-19T00:59:28.652Z,87.30
2017-08-19T01:00:01.179Z,86.50
2017-08-19T01:00:33.705Z,86.30
2017-08-19T01:01:06.998Z,86.30
2017-08-19T01:01:39.525Z,85.60
2017-08-19T01:02:12.813Z,86.50
2017-08-19T01:02:45.323Z,86.40
2017-08-19T01:03:18.608Z,86.10
2017-08-19T01:03:51.131Z,86.10
2017-08-19T01:04:24.421Z,86.20
2017-08-19T01:04:56.954Z,86.10
2017-08-19T01:05:29.525Z,86.50
2017-08-19T01:06:02.052Z,86.90
2017-08-19T01:06:34.587Z,87.10
2017-08-19T01:07:07.111Z,86.50
2017-08-19T01:07:39.640Z,86.40
2017-08-19T01:08:12.162Z,87.00
2017-08-19T01:08:44.695Z,86.50
2017-08-19T01:09:17.217Z,86.80
2017-08-19T01:09:49.763Z,87.00
2017-08-19T01:10:22.297Z,86.90
2017-08-19T01:10:54.837Z,87.10
2017-08-19T01:11:28.124Z,85.90
2017-08-19T01:12:00.665Z,85.90
2017-08-19T01:12:33.181Z,85.70
2017-08-19T01:13:06.462Z,86.00
2017-08-19T01:13:38.976Z,85.90
2017-08-19T01:14:11.480Z,85.60
2017-08-19T01:14:44.012Z,85.40
2017-08-19T01:15:16.573Z,85.70
2017-08-19T01:15:49.072Z,86.70
2017-08-19T01:16:22.358Z,86.80
2017-08-19T01:16:54.925Z,86.80
2017-08-19T01:17:27.498Z,86.70
2017-08-19T01:18:00.043Z,86.10
2017-08-19T01:18:32.563Z,86.40
2017-08-19T01:19:05.211Z,86.80
2017-08-19T01:19:37.736Z,87.20
2017-08-19T01:20:10.257Z,86.70
2017-08-19T01:20:42.799Z,86.10
2017-08-19T01:21:15.400Z,86.00
2017-08-19T01:21:47.938Z,86.50
2017-08-19T01:22:20.464Z,87.00
2017-08-19T01:22:53.127Z,86.20
2017-08-19T01:23:25.690Z,85.70
2017-08-19T01:23:58.224Z,86.30
2017-08-19T01:24:30.717Z,86.90
2017-08-19T01:25:15.178Z,86.80
2017-08-19T01:26:08.468Z,86.90
2017-08-19T01:27:03.822Z,86.30
2017-08-19T01:27:36.337Z,86.00
2017-08-19T01:28:08.869Z,86.30
2017-08-19T01:28:41.380Z,86.70
2017-08-19T01:29:13.891Z,86.90
2017-08-19T01:29:47.172Z,86.40
2017-08-19T01:30:19.738Z,86.40
2017-08-19T01:30:52.282Z,86.40
2017-08-19T01:31:24.802Z,86.00
2017-08-19T01:31:57.325Z,85.60
2017-08-19T01:32:30.606Z,87.20
2017-08-19T01:33:03.119Z,86.70
2017-08-19T01:33:35.637Z,86.50
2017-08-19T01:34:08.280Z,86.50
2017-08-19T01:34:40.817Z,86.10
2017-08-19T01:35:13.375Z,86.00
2017-08-19T01:35:46.020Z,86.60
2017-08-19T01:36:18.549Z,86.60
2017-08-19T01:36:51.108Z,86.00
2017-08-19T01:37:23.625Z,86.30
2017-08-19T01:37:56.142Z,86.50
2017-08-19T01:38:30.029Z,85.50
2017-08-19T01:39:02.564Z,85.50
2017-08-19T01:39:35.861Z,87.10
2017-08-19T01:40:08.433Z,87.10
2017-08-19T01:40:40.964Z,86.70
2017-08-19T01:41:13.480Z,86.60
2017-08-19T01:41:45.995Z,86.40
2017-08-19T01:42:19.265Z,86.20
2017-08-19T01:42:52.839Z,86.40
2017-08-19T01:43:25.359Z,86.40
2017-08-19T01:43:57.899Z,86.80
2017-08-19T01:44:30.518Z,86.40
2017-08-19T01:45:03.047Z,86.00
2017-08-19T01:45:35.571Z,85.80
2017-08-19T01:46:08.081Z,85.60
2017-08-19T01:46:40.628Z,85.50
2017-08-19T01:47:13.324Z,85.50
2017-08-19T01:47:45.837Z,86.40
2017-08-19T01:48:19.157Z,86.60
2017-08-19T01:48:51.665Z,86.40
2017-08-19T01:49:24.202Z,86.20
2017-08-19T01:49:56.742Z,85.60
2017-08-19T01:50:29.324Z,86.20
2017-08-19T01:51:01.892Z,86.40
2017-08-19T01:51:34.421Z,85.90
2017-08-19T01:52:06.945Z,85.90
2017-08-19T01:52:39.481Z,86.10
2017-08-19T01:53:12.017Z,86.60
2017-08-19T01:53:44.548Z,86.10
2017-08-19T01:54:17.817Z,85.70
2017-08-19T01:54:50.334Z,85.70
2017-08-19T01:55:22.898Z,85.60
2017-08-19T01:55:56.197Z,86.90
2017-08-19T01:56:28.726Z,86.80
2017-08-19T01:57:01.277Z,87.20
2017-08-19T01:57:33.790Z,86.80
2017-08-19T01:58:07.084Z,86.70
2017-08-19T01:58:39.656Z,86.70
2017-08-19T01:59:12.175Z,86.50
2017-08-19T01:59:44.678Z,86.00
2017-08-19T02:00:17.210Z,85.90
2017-08-19T02:00:49.736Z,86.70
2017-08-19T02:01:22.269Z,87.30
2017-08-19T02:01:54.772Z,86.70
2017-08-19T02:02:28.083Z,86.80
2017-08-19T02:03:00.580Z,86.70
2017-08-19T02:03:33.889Z,86.40
2017-08-19T02:04:06.417Z,86.30
2017-08-19T02:04:38.917Z,86.20
2017-08-19T02:05:12.204Z,86.30
2017-08-19T02:05:44.783Z,85.70
2017-08-19T02:06:17.323Z,85.90
2017-08-19T02:06:49.822Z,85.80
2017-08-19T02:07:23.112Z,87.50
2017-08-19T02:07:55.684Z,87.30
2017-08-19T02:08:28.226Z,86.80
2017-08-19T02:09:00.744Z,86.40
2017-08-19T02:09:33.310Z,86.30
2017-08-19T02:10:05.843Z,86.30
2017-08-19T02:10:38.366Z,86.20
2017-08-19T02:11:10.890Z,86.10
2017-08-19T02:11:44.218Z,86.40
2017-08-19T02:12:16.753Z,86.30
2017-08-19T02:12:49.269Z,86.60
2017-08-19T02:13:21.816Z,86.60
2017-08-19T02:13:54.336Z,86.00
2017-08-19T02:14:27.622Z,86.40
2017-08-19T02:15:00.135Z,86.40
2017-08-19T02:15:33.473Z,86.50
2017-08-19T02:16:05.972Z,86.40
2017-08-19T02:16:38.558Z,86.10
2017-08-19T02:17:11.067Z,85.90
2017-08-19T02:17:43.580Z,86.20
2017-08-19T02:18:16.890Z,87.00
2017-08-19T02:18:49.559Z,86.90
2017-08-19T02:19:22.077Z,86.40
2017-08-19T02:19:54.582Z,86.40
2017-08-19T02:20:27.863Z,86.10
2017-08-19T02:21:00.412Z,86.10
2017-08-19T02:21:32.985Z,85.80
2017-08-19T02:22:05.486Z,85.60
2017-08-19T02:22:38.896Z,86.80
2017-08-19T02:23:11.403Z,86.70
2017-08-19T02:23:43.964Z,86.30
2017-08-19T02:24:16.488Z,86.00
2017-08-19T02:24:49.089Z,86.10
2017-08-19T02:25:21.624Z,85.50
2017-08-19T02:25:54.150Z,85.30
2017-08-19T02:26:26.646Z,85.50
2017-08-19T02:26:59.923Z,85.40
2017-08-19T02:27:33.207Z,85.60
2017-08-19T02:28:05.739Z,85.60
2017-08-19T02:28:38.255Z,85.90
2017-08-19T02:29:10.758Z,86.00
2017-08-19T02:29:43.318Z,86.20
2017-08-19T02:30:15.856Z,86.10
2017-08-19T02:30:48.381Z,86.20
2017-08-19T02:31:20.938Z,86.40
2017-08-19T02:31:53.483Z,86.70
2017-08-19T02:32:26.004Z,87.00
2017-08-19T02:32:58.566Z,87.20
2017-08-19T02:33:31.426Z,87.20
2017-08-19T02:34:03.932Z,87.30
2017-08-19T02:34:37.236Z,86.40
2017-08-19T02:35:09.742Z,86.40
2017-08-19T02:36:20.195Z,86.80
2017-08-19T02:36:52.714Z,87.20
2017-08-19T02:37:25.277Z,87.90
2017-08-19T02:37:57.818Z,87.00
2017-08-19T02:38:30.347Z,87.10
2017-08-19T02:39:02.865Z,87.30
2017-08-19T02:39:35.440Z,87.60
2017-08-19T02:40:07.965Z,86.90
2017-08-19T02:40:40.485Z,86.50
2017-08-19T02:41:13.054Z,86.20
2017-08-19T02:41:45.583Z,86.50
2017-08-19T02:42:18.884Z,87.10
2017-08-19T02:42:51.561Z,86.80
2017-08-19T02:43:24.075Z,86.70
2017-08-19T02:43:56.604Z,86.30
2017-08-19T02:44:29.161Z,85.90
2017-08-19T02:45:01.680Z,85.90
2017-08-19T02:45:34.996Z,87.20
2017-08-19T02:46:07.506Z,87.10
2017-08-19T02:46:40.113Z,87.20
2017-08-19T02:47:12.631Z,87.20
2017-08-19T02:47:45.271Z,87.30
2017-08-19T02:48:17.787Z,87.50
2017-08-19T02:48:50.328Z,87.30
2017-08-19T02:49:22.854Z,87.40
2017-08-19T02:49:55.400Z,87.60
2017-08-19T02:50:28.691Z,87.40
2017-08-19T02:51:01.270Z,87.40
2017-08-19T02:51:33.778Z,86.80
2017-08-19T02:52:06.353Z,86.40
2017-08-19T02:52:38.893Z,86.20
2017-08-19T02:53:11.459Z,87.00
2017-08-19T07:56:50.267Z,72.60
2017-08-19T07:57:22.805Z,74.20
2017-08-19T07:57:55.339Z,73.50
2017-08-19T07:58:27.850Z,74.00
2017-08-19T07:59:00.388Z,73.80
2017-08-19T07:59:33.689Z,73.10
2017-08-19T08:00:06.311Z,73.10
2017-08-19T08:00:38.822Z,73.80
2017-08-19T08:01:11.372Z,73.90
2017-08-19T08:01:43.923Z,74.30
2017-08-19T08:02:16.492Z,73.40
2017-08-19T08:04:46.356Z,72.30
2017-08-19T09:51:44.462Z,56.90
2017-08-19T09:52:19.504Z,59.40
2017-08-19T09:52:52.017Z,58.30
2017-08-19T09:53:24.550Z,58.40
2017-08-19T09:53:57.079Z,57.10
2017-08-19T09:54:29.618Z,57.40
2017-08-19T12:28:04.262Z,46.30
2017-08-19T12:31:24.743Z,44.50
2017-08-19T12:51:56.502Z,45.90
2017-08-19T12:52:29.328Z,46.10
2017-08-19T12:53:01.837Z,44.10
2017-08-19T12:53:38.985Z,45.00
2017-08-19T12:54:11.578Z,45.30
2017-08-19T13:00:15.798Z,45.90
2017-08-19T13:00:48.466Z,44.20
2017-08-19T13:54:07.547Z,46.70
2017-08-19T13:54:40.631Z,47.20
2017-08-19T13:55:14.028Z,45.20
2017-08-19T13:55:48.269Z,45.30
2017-08-19T13:56:21.084Z,46.90
2017-08-19T13:56:56.478Z,46.00
2017-08-19T13:57:44.827Z,47.60
2017-08-19T13:58:17.513Z,48.30
2017-08-19T13:58:50.063Z,47.90
2017-08-19T13:59:22.644Z,47.00
2017-08-19T13:59:55.735Z,46.20
2017-08-19T14:00:28.274Z,46.20
2017-08-19T14:01:00.808Z,47.30
2017-08-19T23:40:40.971Z,64.70
2017-08-19T23:41:13.571Z,65.10
2017-08-19T23:41:46.354Z,65.30
2017-08-19T23:42:18.882Z,65.40
2017-08-19T23:42:51.383Z,65.30
2017-08-19T23:43:23.894Z,65.20
2017-08-19T23:43:57.181Z,66.20
2017-08-19T23:44:29.763Z,66.00
2017-08-19T23:45:02.249Z,65.80
2017-08-19T23:45:34.762Z,65.40
2017-08-19T23:46:07.302Z,65.20
2017-08-19T23:48:05.802Z,65.20
2017-08-19T23:48:38.321Z,65.70
2017-08-19T23:49:18.466Z,65.50
2017-08-19T23:49:51.327Z,65.40
2017-08-19T23:50:23.837Z,65.50
